Terminal Aerodrome Forecast
Issued by NWS

Home | Current Version | Previous Version | Text Only | Print | Product List | Glossary On
Versions: 1 2 3 4 5 6 7 8 9 10 11 12 13
819
FTUS46 KSGX 231120
TAFSNA
TAF
KSNA 231120Z 2312/2412 VRB03KT P6SM OVC011
     FM231900 23009KT P6SM SCT013
     FM240200 VRB04KT P6SM SCT012
     FM240400 VRB03KT P6SM OVC012=

USA.gov is the U.S. government's official web portal to all federal, state and local government web resources and services.